Time;durP1;ratioP1;P1;durP2;ratioP2;P2;SDS_P1;SDS_P2;PMS_P1;PMS_P2;Temp;Humidity;BMP_temperature;BMP_pressure;BME280_temperature;BME280_humidity;BME280_pressure;Samples;Min_cycle;Max_cycle;Signal;HPM_P1;HPM_P2
2022/09/11 00:01:05;;;;;;;3.85;2.00;;;;;;;;;;5047923;28;20463;-57
2022/09/11 00:03:31;;;;;;;4.13;1.65;;;;;;;;;;5047698;28;20031;-57
2022/09/11 00:06:05;;;;;;;4.03;1.27;;;;;;;;;;5046546;28;20056;-57
2022/09/11 00:08:31;;;;;;;4.40;1.63;;;;;;;;;;5049153;28;20609;-57
2022/09/11 00:11:08;;;;;;;3.50;1.60;;;;;;;;;;5048685;28;20485;-58
2022/09/11 00:13:36;;;;;;;4.80;1.75;;;;;;;;;;5047886;28;20028;-57
2022/09/11 00:16:04;;;;;;;4.03;2.10;;;;;;;;;;5048667;28;20033;-58
2022/09/11 00:18:30;;;;;;;4.40;1.80;;;;;;;;;;5049315;28;20065;-57
2022/09/11 00:20:57;;;;;;;3.55;1.75;;;;;;;;;;5046150;28;20035;-57
2022/09/11 00:23:25;;;;;;;6.93;1.50;;;;;;;;;;5048071;28;20036;-58
2022/09/11 00:25:51;;;;;;;6.32;1.95;;;;;;;;;;5048481;28;20437;-57
2022/09/11 00:28:20;;;;;;;2.20;1.40;;;;;;;;;;5049576;28;20025;-59
2022/09/11 00:30:47;;;;;;;2.63;1.33;;;;;;;;;;5048479;28;20095;-57
2022/09/11 00:33:14;;;;;;;4.53;1.70;;;;;;;;;;5048569;28;20029;-57
2022/09/11 00:35:40;;;;;;;4.00;1.50;;;;;;;;;;5044512;28;20487;-57
2022/09/11 00:38:07;;;;;;;2.83;1.50;;;;;;;;;;5049200;28;20033;-57
2022/09/11 00:40:44;;;;;;;2.25;1.50;;;;;;;;;;5049066;28;20044;-58
2022/09/11 00:43:11;;;;;;;4.13;1.52;;;;;;;;;;5048154;28;20517;-57
2022/09/11 00:45:37;;;;;;;2.30;1.40;;;;;;;;;;5048074;28;20035;-58
2022/09/11 00:48:04;;;;;;;2.75;1.67;;;;;;;;;;5048441;28;20028;-58
2022/09/11 00:50:31;;;;;;;3.28;1.67;;;;;;;;;;5048124;28;20415;-57
2022/09/11 00:53:01;;;;;;;1.50;1.30;;;;;;;;;;5047250;28;20028;-58
2022/09/11 00:55:31;;;;;;;3.63;1.40;;;;;;;;;;5047823;28;20047;-57
2022/09/11 00:58:04;;;;;;;;;;;;;;;;;;5048927;28;20578;-57
2022/09/11 01:00:30;;;;;;;4.60;1.52;;;;;;;;;;5048315;28;19971;-57
2022/09/11 01:02:56;;;;;;;2.78;1.40;;;;;;;;;;5047309;28;20029;-57
2022/09/11 01:05:23;;;;;;;1.85;1.50;;;;;;;;;;5046412;28;20033;-57
2022/09/11 01:07:53;;;;;;;3.95;1.80;;;;;;;;;;5051683;28;20063;-57
2022/09/11 01:10:25;;;;;;;1.58;1.48;;;;;;;;;;5052057;28;20539;-56
2022/09/11 01:13:16;;;;;;;4.45;1.50;;;;;;;;;;5051557;28;20032;-57
2022/09/11 01:16:11;;;;;;;2.70;1.30;;;;;;;;;;5051411;28;20083;-57
2022/09/11 01:18:45;;;;;;;3.05;1.73;;;;;;;;;;5047712;28;20118;-57
2022/09/11 01:21:19;;;;;;;4.53;1.50;;;;;;;;;;5048260;28;20073;-57
2022/09/11 01:23:54;;;;;;;2.88;1.50;;;;;;;;;;5048597;28;20482;-57
2022/09/11 01:26:44;;;;;;;3.67;1.67;;;;;;;;;;5051655;28;20470;-57
2022/09/11 01:29:21;;;;;;;2.92;1.70;;;;;;;;;;5048105;28;20387;-58
2022/09/11 01:32:14;;;;;;;2.20;1.60;;;;;;;;;;5048134;28;20021;-57
2022/09/11 01:35:01;;;;;;;3.15;1.55;;;;;;;;;;5048484;28;20041;-58
2022/09/11 01:37:37;;;;;;;3.40;1.45;;;;;;;;;;5052096;28;20512;-57
2022/09/11 01:40:11;;;;;;;2.65;1.67;;;;;;;;;;5045523;28;20158;-58
2022/09/11 01:42:42;;;;;;;3.08;1.80;;;;;;;;;;5050754;28;20025;-57
2022/09/11 01:45:10;;;;;;;3.25;1.50;;;;;;;;;;5051404;28;20029;-57
2022/09/11 01:47:37;;;;;;;2.75;1.42;;;;;;;;;;5052228;28;20075;-57
2022/09/11 01:50:09;;;;;;;2.50;1.80;;;;;;;;;;5050630;28;20028;-57
2022/09/11 01:52:46;;;;;;;3.55;1.50;;;;;;;;;;5050544;28;20404;-57
2022/09/11 01:55:20;;;;;;;4.20;1.73;;;;;;;;;;5051177;28;20382;-57
2022/09/11 01:57:58;;;;;;;2.78;1.58;;;;;;;;;;5051630;28;20479;-58
2022/09/11 02:00:23;;;;;;;4.70;1.60;;;;;;;;;;5051732;28;20059;-58
2022/09/11 02:02:58;;;;;;;5.82;2.45;;;;;;;;;;5051113;28;20546;-57
2022/09/11 02:05:42;;;;;;;4.07;1.80;;;;;;;;;;5050473;28;20025;-58
2022/09/11 02:08:15;;;;;;;4.85;1.80;;;;;;;;;;5046546;28;20517;-59
2022/09/11 02:10:55;;;;;;;4.55;2.10;;;;;;;;;;5050776;28;20029;-59
2022/09/11 02:13:34;;;;;;;4.72;1.80;;;;;;;;;;5050965;28;20124;-58
2022/09/11 02:16:21;;;;;;;4.72;1.95;;;;;;;;;;5050275;28;20016;-58
2022/09/11 02:19:00;;;;;;;3.03;1.95;;;;;;;;;;5050477;28;20033;-58
2022/09/11 02:21:26;;;;;;;3.28;1.73;;;;;;;;;;5049799;28;20067;-59
2022/09/11 02:23:54;;;;;;;4.82;1.98;;;;;;;;;;5051144;28;20413;-58
2022/09/11 02:26:23;;;;;;;5.30;1.80;;;;;;;;;;5050783;28;20470;-58
2022/09/11 02:28:48;;;;;;;3.58;1.88;;;;;;;;;;5050170;28;20043;-58
2022/09/11 02:31:14;;;;;;;3.55;1.80;;;;;;;;;;5050463;28;20486;-58
2022/09/11 02:33:40;;;;;;;3.10;1.48;;;;;;;;;;5049483;28;20033;-58
2022/09/11 02:36:45;;;;;;;6.93;1.70;;;;;;;;;;5049329;28;20037;-58
2022/09/11 02:39:19;;;;;;;2.83;1.63;;;;;;;;;;5048623;28;20029;-58
2022/09/11 02:41:58;;;;;;;6.57;2.35;;;;;;;;;;5048780;28;20025;-57
2022/09/11 02:44:39;;;;;;;6.72;1.98;;;;;;;;;;5049595;28;20039;-58
2022/09/11 02:47:16;;;;;;;3.03;1.80;;;;;;;;;;5049288;28;20021;-57
2022/09/11 02:49:44;;;;;;;5.70;1.95;;;;;;;;;;5049303;28;20030;-57
2022/09/11 02:52:20;;;;;;;6.40;2.10;;;;;;;;;;5049670;28;20036;-57
2022/09/11 02:54:55;;;;;;;8.20;2.80;;;;;;;;;;5049746;28;20048;-58
2022/09/11 02:58:04;;;;;;;5.50;2.45;;;;;;;;;;5051225;28;20100;-58
2022/09/11 03:00:29;;;;;;;6.72;1.98;;;;;;;;;;5037736;28;20131;-57
2022/09/11 03:02:55;;;;;;;4.85;2.40;;;;;;;;;;5049010;28;20104;-57
2022/09/11 03:05:22;;;;;;;7.88;3.05;;;;;;;;;;5050428;28;20032;-58
2022/09/11 03:07:48;;;;;;;5.30;2.70;;;;;;;;;;5049801;28;20056;-57
2022/09/11 03:10:13;;;;;;;6.03;2.63;;;;;;;;;;5050835;28;20451;-58
2022/09/11 03:12:40;;;;;;;4.72;2.80;;;;;;;;;;5049415;28;20032;-58
2022/09/11 03:15:08;;;;;;;5.88;2.42;;;;;;;;;;5050179;28;20434;-58
2022/09/11 03:17:33;;;;;;;6.32;2.75;;;;;;;;;;5045004;28;20398;-57
2022/09/11 03:19:59;;;;;;;4.18;2.50;;;;;;;;;;5047848;28;20028;-57
2022/09/11 03:22:24;;;;;;;7.05;2.88;;;;;;;;;;5049172;28;20053;-57
2022/09/11 03:24:50;;;;;;;5.50;2.60;;;;;;;;;;5049465;28;20483;-57
2022/09/11 03:27:16;;;;;;;8.40;2.97;;;;;;;;;;5064743;28;20029;-57
2022/09/11 03:29:43;;;;;;;4.47;2.53;;;;;;;;;;5049342;28;20040;-58
2022/09/11 03:32:09;;;;;;;4.95;2.55;;;;;;;;;;5048975;28;20048;-57
2022/09/11 03:34:34;;;;;;;6.57;2.67;;;;;;;;;;5050155;28;20033;-57
2022/09/11 03:37:01;;;;;;;5.07;2.55;;;;;;;;;;5048430;28;20025;-57
2022/09/11 03:39:26;;;;;;;5.97;2.67;;;;;;;;;;5050186;28;20466;-57
2022/09/11 03:41:53;;;;;;;4.97;2.92;;;;;;;;;;5047971;28;20025;-58
2022/09/11 03:44:18;;;;;;;7.63;3.13;;;;;;;;;;5048118;28;20049;-57
2022/09/11 03:46:44;;;;;;;8.05;3.88;;;;;;;;;;5049272;28;20028;-56
2022/09/11 03:49:09;;;;;;;5.22;2.65;;;;;;;;;;5042694;28;20039;-57
2022/09/11 03:51:34;;;;;;;3.95;2.50;;;;;;;;;;5048306;28;20501;-58
2022/09/11 03:54:00;;;;;;;5.25;2.83;;;;;;;;;;5048588;28;20033;-57
2022/09/11 03:56:27;;;;;;;5.40;2.60;;;;;;;;;;5049178;28;20048;-57
2022/09/11 03:58:58;;;;;;;4.68;2.90;;;;;;;;;;5048617;28;20079;-58
2022/09/11 04:01:24;;;;;;;6.38;2.70;;;;;;;;;;5048031;28;20029;-57
2022/09/11 04:03:50;;;;;;;4.93;2.50;;;;;;;;;;5048780;28;20398;-57
2022/09/11 04:06:15;;;;;;;7.45;2.58;;;;;;;;;;5044417;28;20033;-56
2022/09/11 04:08:41;;;;;;;4.90;2.55;;;;;;;;;;5048954;28;20029;-57
2022/09/11 04:11:08;;;;;;;5.68;2.67;;;;;;;;;;5049469;28;20051;-57
2022/09/11 04:13:36;;;;;;;4.20;2.80;;;;;;;;;;5048004;28;20025;-57
2022/09/11 04:16:08;;;;;;;5.20;2.65;;;;;;;;;;5048510;28;20426;-57
2022/09/11 04:18:36;;;;;;;8.45;3.08;;;;;;;;;;5049159;28;20035;-57
2022/09/11 04:21:05;;;;;;;5.03;2.75;;;;;;;;;;5045998;28;20078;-57
2022/09/11 04:23:31;;;;;;;3.17;2.72;;;;;;;;;;5047505;28;20052;-57
2022/09/11 04:25:57;;;;;;;6.75;3.03;;;;;;;;;;5048145;28;20059;-56
2022/09/11 04:28:22;;;;;;;6.70;3.22;;;;;;;;;;5048106;28;20054;-57
2022/09/11 04:30:48;;;;;;;8.55;3.42;;;;;;;;;;5048434;28;20478;-58
2022/09/11 04:33:13;;;;;;;7.35;2.80;;;;;;;;;;5048310;28;20033;-57
2022/09/11 04:35:39;;;;;;;4.22;3.00;;;;;;;;;;5047535;28;20029;-57
2022/09/11 04:38:05;;;;;;;6.38;3.20;;;;;;;;;;5047360;28;20055;-58
2022/09/11 04:40:32;;;;;;;5.32;2.97;;;;;;;;;;5049012;28;20108;-57
2022/09/11 04:42:58;;;;;;;4.72;2.55;;;;;;;;;;5048110;28;20398;-57
2022/09/11 04:45:23;;;;;;;5.15;2.83;;;;;;;;;;5047649;28;20069;-57
2022/09/11 04:47:51;;;;;;;4.25;2.85;;;;;;;;;;5048607;28;20052;-57
2022/09/11 04:50:17;;;;;;;4.32;2.55;;;;;;;;;;5048830;28;20124;-58
2022/09/11 04:52:44;;;;;;;4.72;2.80;;;;;;;;;;5047560;28;20052;-57
2022/09/11 04:55:10;;;;;;;6.57;2.85;;;;;;;;;;5047895;28;20536;-57
2022/09/11 04:57:36;;;;;;;5.07;2.83;;;;;;;;;;5048477;28;20047;-57
2022/09/11 05:00:04;;;;;;;5.10;2.70;;;;;;;;;;5047979;28;20487;-57
2022/09/11 05:02:29;;;;;;;4.57;2.47;;;;;;;;;;5045826;28;20060;-57
2022/09/11 05:04:55;;;;;;;5.57;2.60;;;;;;;;;;5045741;28;20056;-60
2022/09/11 05:07:20;;;;;;;4.75;2.25;;;;;;;;;;5048043;28;20028;-58
2022/09/11 05:09:46;;;;;;;7.75;2.80;;;;;;;;;;5044961;28;20033;-60
2022/09/11 05:12:12;;;;;;;3.83;2.70;;;;;;;;;;5047558;28;20112;-59
2022/09/11 05:14:38;;;;;;;4.20;2.30;;;;;;;;;;5048544;28;20025;-59
2022/09/11 05:17:03;;;;;;;3.70;2.60;;;;;;;;;;5047282;28;20371;-59
2022/09/11 05:19:29;;;;;;;5.20;2.65;;;;;;;;;;5048186;28;20029;-59
2022/09/11 05:21:54;;;;;;;3.72;2.50;;;;;;;;;;5046311;28;20029;-59
2022/09/11 05:24:19;;;;;;;2.88;2.33;;;;;;;;;;5048326;28;20035;-59
2022/09/11 05:26:45;;;;;;;4.18;2.58;;;;;;;;;;5047919;28;20039;-59
2022/09/11 05:29:13;;;;;;;6.30;2.40;;;;;;;;;;5047992;28;20493;-59
2022/09/11 05:31:39;;;;;;;3.70;2.63;;;;;;;;;;5046167;28;20040;-59
2022/09/11 05:34:05;;;;;;;3.88;2.83;;;;;;;;;;5047648;28;20025;-59
2022/09/11 05:36:32;;;;;;;3.97;2.60;;;;;;;;;;5047335;28;20025;-58
2022/09/11 05:38:59;;;;;;;6.20;2.45;;;;;;;;;;5047448;28;20486;-58
2022/09/11 05:41:25;;;;;;;7.05;3.85;;;;;;;;;;5047152;28;20032;-59
2022/09/11 05:43:50;;;;;;;5.75;2.83;;;;;;;;;;5046899;28;20032;-59
2022/09/11 05:46:17;;;;;;;3.67;2.70;;;;;;;;;;5047401;28;20021;-58
2022/09/11 05:48:43;;;;;;;5.15;3.15;;;;;;;;;;5047930;28;20025;-59
2022/09/11 05:51:14;;;;;;;5.28;3.05;;;;;;;;;;5047670;28;20398;-59
2022/09/11 05:53:40;;;;;;;3.90;2.80;;;;;;;;;;5050086;28;20029;-60
2022/09/11 05:56:17;;;;;;;6.43;2.95;;;;;;;;;;5048230;28;20029;-58
2022/09/11 05:58:43;;;;;;;6.03;2.95;;;;;;;;;;5049134;28;20084;-59
2022/09/11 06:01:11;;;;;;;4.47;2.63;;;;;;;;;;5050677;28;20025;-58
2022/09/11 06:03:38;;;;;;;4.90;3.38;;;;;;;;;;5050565;28;20036;-59
2022/09/11 06:06:06;;;;;;;4.47;3.00;;;;;;;;;;5050328;28;20032;-59
2022/09/11 06:08:35;;;;;;;4.70;3.10;;;;;;;;;;5050506;28;20425;-58
2022/09/11 06:11:04;;;;;;;6.70;3.08;;;;;;;;;;5043819;28;20020;-59
2022/09/11 06:13:32;;;;;;;4.93;2.72;;;;;;;;;;5050274;28;20033;-59
2022/09/11 06:15:58;;;;;;;6.22;3.08;;;;;;;;;;5049712;28;20028;-59
2022/09/11 06:18:24;;;;;;;3.35;2.40;;;;;;;;;;5051477;28;20547;-59
2022/09/11 06:20:59;;;;;;;5.03;2.90;;;;;;;;;;5050781;28;20060;-59
2022/09/11 06:23:24;;;;;;;4.38;2.83;;;;;;;;;;5050830;28;20463;-60
2022/09/11 06:25:52;;;;;;;5.85;2.83;;;;;;;;;;5050671;28;20036;-59
2022/09/11 06:28:17;;;;;;;4.32;2.60;;;;;;;;;;5051362;28;20029;-59
2022/09/11 06:30:42;;;;;;;5.18;3.10;;;;;;;;;;5045862;28;20056;-59
2022/09/11 06:33:08;;;;;;;6.20;2.90;;;;;;;;;;5050596;28;20025;-59
2022/09/11 06:35:33;;;;;;;5.05;2.70;;;;;;;;;;5050897;28;20059;-59
2022/09/11 06:37:58;;;;;;;5.57;3.40;;;;;;;;;;5051722;28;20028;-59
2022/09/11 06:40:24;;;;;;;6.45;3.33;;;;;;;;;;5051384;28;20401;-61
2022/09/11 06:42:50;;;;;;;4.82;3.17;;;;;;;;;;5050835;28;20025;-59
2022/09/11 06:45:16;;;;;;;5.72;3.00;;;;;;;;;;5050414;28;20529;-59
2022/09/11 06:47:42;;;;;;;3.83;3.10;;;;;;;;;;5051194;28;20060;-59
2022/09/11 06:50:07;;;;;;;7.97;3.50;;;;;;;;;;5050482;28;20120;-59
2022/09/11 06:52:33;;;;;;;4.93;3.42;;;;;;;;;;5050177;28;20060;-59
2022/09/11 06:54:59;;;;;;;3.80;3.35;;;;;;;;;;5049291;28;20082;-58
2022/09/11 06:57:25;;;;;;;6.40;3.20;;;;;;;;;;5050628;28;20037;-59
2022/09/11 06:59:51;;;;;;;4.13;2.72;;;;;;;;;;5050347;28;20076;-59
2022/09/11 07:02:16;;;;;;;13.57;8.13;;;;;;;;;;5048686;28;20028;-59
2022/09/11 07:04:41;;;;;;;7.20;3.63;;;;;;;;;;5045151;28;20036;-59
2022/09/11 07:07:07;;;;;;;5.68;3.58;;;;;;;;;;5049478;28;20040;-59
2022/09/11 07:09:32;;;;;;;6.50;3.78;;;;;;;;;;5050367;28;20631;-59
2022/09/11 07:11:57;;;;;;;5.78;3.95;;;;;;;;;;5049146;28;20025;-59
2022/09/11 07:14:23;;;;;;;5.93;4.00;;;;;;;;;;5049410;28;20043;-59
2022/09/11 07:16:49;;;;;;;5.07;3.75;;;;;;;;;;5044993;28;20024;-59
2022/09/11 07:19:17;;;;;;;4.53;3.25;;;;;;;;;;5041814;28;20029;-58
2022/09/11 07:21:43;;;;;;;4.07;3.63;;;;;;;;;;5048594;28;20056;-59
2022/09/11 07:24:08;;;;;;;6.45;3.55;;;;;;;;;;5050509;28;20106;-59
2022/09/11 07:26:35;;;;;;;5.40;3.22;;;;;;;;;;5049846;28;20478;-59
2022/09/11 07:29:00;;;;;;;6.55;3.85;;;;;;;;;;5050114;28;20052;-59
2022/09/11 07:31:29;;;;;;;5.85;3.95;;;;;;;;;;5049185;28;20072;-59
2022/09/11 07:33:55;;;;;;;5.10;4.13;;;;;;;;;;5048090;28;20033;-58
2022/09/11 07:36:25;;;;;;;8.00;3.97;;;;;;;;;;5049317;28;20052;-58
2022/09/11 07:38:51;;;;;;;6.50;4.38;;;;;;;;;;5048922;28;20016;-58
2022/09/11 07:41:19;;;;;;;5.28;4.10;;;;;;;;;;5049414;28;20020;-59
2022/09/11 07:43:45;;;;;;;7.60;3.85;;;;;;;;;;5049455;28;20033;-58
2022/09/11 07:46:11;;;;;;;6.95;4.35;;;;;;;;;;5052850;28;20490;-59
2022/09/11 07:48:37;;;;;;;5.32;4.28;;;;;;;;;;5053032;28;20116;-59
2022/09/11 07:51:05;;;;;;;6.07;4.10;;;;;;;;;;5053116;28;20100;-60
2022/09/11 07:53:33;;;;;;;5.72;4.07;;;;;;;;;;5054795;28;20025;-59
2022/09/11 07:56:10;;;;;;;9.20;5.15;;;;;;;;;;5051559;28;20028;-59
2022/09/11 07:58:40;;;;;;;12.68;5.53;;;;;;;;;;5053673;28;20107;-58
2022/09/11 08:01:08;;;;;;;8.85;5.78;;;;;;;;;;5058082;28;20635;-59
2022/09/11 08:03:35;;;;;;;8.23;5.20;;;;;;;;;;5052752;28;20113;-59
2022/09/11 08:06:05;;;;;;;12.98;6.95;;;;;;;;;;5054555;28;20036;-58
2022/09/11 08:08:31;;;;;;;9.32;5.30;;;;;;;;;;5052246;28;20052;-59
2022/09/11 08:11:02;;;;;;;11.18;5.82;;;;;;;;;;5056942;28;20190;-60
2022/09/11 08:13:28;;;;;;;9.25;5.10;;;;;;;;;;5053852;28;20178;-59
2022/09/11 08:15:55;;;;;;;7.28;4.40;;;;;;;;;;5055809;28;20556;-60
2022/09/11 08:18:21;;;;;;;7.00;4.20;;;;;;;;;;5057775;28;20047;-59
2022/09/11 08:20:47;;;;;;;6.50;4.07;;;;;;;;;;5054420;28;20480;-59
2022/09/11 08:23:14;;;;;;;8.70;4.72;;;;;;;;;;5056418;28;20109;-58
2022/09/11 08:25:40;;;;;;;5.22;4.10;;;;;;;;;;5057233;28;20040;-59
2022/09/11 08:28:05;;;;;;;8.38;4.18;;;;;;;;;;5049564;28;20029;-58
2022/09/11 08:30:32;;;;;;;20.60;4.90;;;;;;;;;;5048398;28;20554;-59
2022/09/11 08:32:58;;;;;;;8.27;4.07;;;;;;;;;;5046955;28;20410;-59
2022/09/11 08:35:24;;;;;;;6.10;4.20;;;;;;;;;;5047094;28;20044;-59
2022/09/11 08:37:50;;;;;;;6.70;4.75;;;;;;;;;;5046376;28;20052;-60
2022/09/11 08:40:16;;;;;;;8.77;4.90;;;;;;;;;;5046701;28;20478;-59
2022/09/11 08:42:44;;;;;;;9.38;5.80;;;;;;;;;;5047199;28;20037;-59
2022/09/11 08:45:20;;;;;;;8.68;4.70;;;;;;;;;;5047686;28;20080;-59
2022/09/11 08:47:50;;;;;;;7.85;4.78;;;;;;;;;;5061821;28;20025;-59
2022/09/11 08:50:38;;;;;;;8.45;5.10;;;;;;;;;;5047063;28;20060;-62
2022/09/11 08:53:05;;;;;;;6.55;4.85;;;;;;;;;;5045643;28;20027;-59
2022/09/11 08:55:42;;;;;;;8.05;4.90;;;;;;;;;;5047651;28;20041;-60
2022/09/11 08:58:43;;;;;;;7.15;5.00;;;;;;;;;;5047931;28;20123;-59
2022/09/11 09:01:47;;;;;;;11.52;4.70;;;;;;;;;;5037197;28;20129;-58
2022/09/11 09:04:33;;;;;;;12.05;5.00;;;;;;;;;;5041019;28;20456;-58
2022/09/11 09:07:19;;;;;;;8.23;5.60;;;;;;;;;;5047605;28;20040;-59
2022/09/11 09:10:02;;;;;;;9.43;6.05;;;;;;;;;;5048018;28;20657;-58
2022/09/11 09:12:40;;;;;;;8.05;5.70;;;;;;;;;;5048310;28;20087;-59
2022/09/11 09:15:16;;;;;;;9.10;6.90;;;;;;;;;;5048677;28;20061;-59
2022/09/11 09:17:58;;;;;;;10.85;6.38;;;;;;;;;;5047771;28;20033;-59
2022/09/11 09:21:00;;;;;;;9.05;5.95;;;;;;;;;;5043587;28;20028;-59
2022/09/11 09:23:37;;;;;;;9.65;6.18;;;;;;;;;;5011356;28;20041;-59
2022/09/11 09:26:02;;;;;;;8.00;5.80;;;;;;;;;;5040481;28;20135;-59
2022/09/11 09:28:43;;;;;;;9.73;5.72;;;;;;;;;;5050835;28;20112;-60
2022/09/11 09:31:11;;;;;;;9.73;6.15;;;;;;;;;;5048693;28;20043;-60
2022/09/11 09:33:39;;;;;;;8.38;5.10;;;;;;;;;;5048475;28;20016;-59
2022/09/11 09:36:19;;;;;;;8.48;5.28;;;;;;;;;;5051363;28;20024;-60
2022/09/11 09:38:45;;;;;;;7.43;5.47;;;;;;;;;;5051812;28;20066;-60
2022/09/11 09:41:20;;;;;;;9.75;6.53;;;;;;;;;;5052079;28;20487;-60
2022/09/11 09:43:55;;;;;;;9.90;5.60;;;;;;;;;;5050619;28;20032;-59
2022/09/11 09:46:35;;;;;;;8.38;6.10;;;;;;;;;;5051199;28;20487;-60
2022/09/11 09:49:01;;;;;;;8.48;6.20;;;;;;;;;;5051867;28;20021;-59
2022/09/11 09:51:27;;;;;;;14.52;7.38;;;;;;;;;;5048332;28;20086;-59
2022/09/11 09:54:02;;;;;;;11.13;7.05;;;;;;;;;;5051660;28;20107;-60
2022/09/11 09:56:30;;;;;;;8.82;6.32;;;;;;;;;;5049992;28;20033;-59
2022/09/11 09:59:10;;;;;;;8.00;6.43;;;;;;;;;;5052065;28;20025;-60
2022/09/11 10:01:46;;;;;;;10.40;6.65;;;;;;;;;;5051350;28;20051;-59
2022/09/11 10:04:20;;;;;;;6.85;5.63;;;;;;;;;;5049331;28;20052;-59
2022/09/11 10:06:48;;;;;;;6.90;5.53;;;;;;;;;;5049677;28;20017;-59
2022/09/11 10:09:22;;;;;;;8.65;5.30;;;;;;;;;;5052081;28;20517;-59
2022/09/11 10:12:02;;;;;;;6.60;5.68;;;;;;;;;;5049836;28;20035;-59
2022/09/11 10:14:31;;;;;;;10.82;6.88;;;;;;;;;;5048806;28;20103;-59
2022/09/11 10:16:58;;;;;;;9.43;5.93;;;;;;;;;;5050784;28;20035;-59
2022/09/11 10:19:41;;;;;;;6.72;5.20;;;;;;;;;;5051246;28;20025;-60
2022/09/11 10:22:24;;;;;;;9.45;5.82;;;;;;;;;;5049545;28;20466;-59
2022/09/11 10:25:04;;;;;;;7.93;6.20;;;;;;;;;;5050048;28;20031;-59
2022/09/11 10:27:37;;;;;;;7.82;5.47;;;;;;;;;;5051279;28;20091;-60
2022/09/11 10:30:04;;;;;;;8.27;5.47;;;;;;;;;;5051892;28;20051;-59
2022/09/11 10:32:30;;;;;;;12.23;5.95;;;;;;;;;;5049714;28;20406;-59
2022/09/11 10:34:56;;;;;;;7.80;5.22;;;;;;;;;;5050988;28;20039;-60
2022/09/11 10:37:30;;;;;;;7.72;5.65;;;;;;;;;;5049114;28;20475;-61
2022/09/11 10:40:06;;;;;;;7.88;5.10;;;;;;;;;;5050284;28;20020;-62
2022/09/11 10:42:36;;;;;;;8.05;5.18;;;;;;;;;;5047061;28;20067;-62
2022/09/11 10:45:13;;;;;;;8.77;5.13;;;;;;;;;;5047884;28;20535;-61
2022/09/11 10:47:39;;;;;;;6.07;5.05;;;;;;;;;;5048138;28;20490;-62
2022/09/11 10:50:16;;;;;;;6.80;5.05;;;;;;;;;;5051666;28;20032;-63
2022/09/11 10:52:57;;;;;;;7.28;4.82;;;;;;;;;;5049321;28;20441;-62
2022/09/11 10:55:25;;;;;;;6.20;4.53;;;;;;;;;;5049684;28;20171;-61
2022/09/11 10:57:53;;;;;;;6.77;5.53;;;;;;;;;;5049813;28;20075;-64
2022/09/11 11:00:23;;;;;;;7.65;6.10;;;;;;;;;;5047529;28;20031;-64
2022/09/11 11:03:08;;;;;;;7.72;5.93;;;;;;;;;;5049616;28;20063;-61
2022/09/11 11:05:48;;;;;;;7.65;5.20;;;;;;;;;;5048781;28;20020;-64
2022/09/11 11:08:28;;;;;;;10.35;5.88;;;;;;;;;;5050078;28;20082;-64
2022/09/11 11:11:07;;;;;;;6.50;5.32;;;;;;;;;;5049024;28;20033;-65
2022/09/11 11:13:51;;;;;;;8.65;5.88;;;;;;;;;;5048864;28;20504;-65
2022/09/11 11:16:29;;;;;;;8.18;6.32;;;;;;;;;;5048488;28;20063;-65
2022/09/11 11:19:12;;;;;;;7.85;5.88;;;;;;;;;;5046442;28;20761;-61
2022/09/11 11:21:42;;;;;;;7.82;5.88;;;;;;;;;;5046893;28;20380;-61
2022/09/11 11:24:20;;;;;;;6.70;5.50;;;;;;;;;;5050088;28;20037;-61
2022/09/11 11:27:05;;;;;;;8.32;5.75;;;;;;;;;;5049820;28;20065;-61
2022/09/11 11:30:01;;;;;;;8.88;6.30;;;;;;;;;;5049941;28;20032;-61
2022/09/11 11:32:51;;;;;;;8.82;6.20;;;;;;;;;;5047900;28;20025;-61
2022/09/11 11:35:25;;;;;;;8.00;5.88;;;;;;;;;;5047868;28;20114;-61
2022/09/11 11:38:30;;;;;;;8.75;5.93;;;;;;;;;;5048299;28;20082;-61
2022/09/11 11:41:24;;;;;;;7.18;5.45;;;;;;;;;;5007424;28;20064;-61
2022/09/11 11:43:54;;;;;;;7.82;5.40;;;;;;;;;;5004756;28;20574;-61
2022/09/11 11:46:21;;;;;;;7.22;5.47;;;;;;;;;;5032683;28;20041;-60
2022/09/11 11:48:58;;;;;;;6.95;5.47;;;;;;;;;;5047532;28;20028;-62
2022/09/11 11:51:29;;;;;;;9.25;6.10;;;;;;;;;;5047341;28;20041;-62
2022/09/11 11:54:09;;;;;;;6.88;5.22;;;;;;;;;;5047667;28;20046;-64
2022/09/11 11:56:49;;;;;;;6.70;5.70;;;;;;;;;;5040924;28;20026;-62
2022/09/11 11:59:19;;;;;;;8.50;5.53;;;;;;;;;;5048952;28;20029;-62
2022/09/11 12:01:54;;;;;;;7.90;5.90;;;;;;;;;;5048020;28;20035;-64
2022/09/11 12:04:29;;;;;;;6.65;5.20;;;;;;;;;;5044695;28;20420;-64
2022/09/11 12:06:54;;;;;;;7.35;5.50;;;;;;;;;;5047636;28;20032;-64
2022/09/11 12:09:20;;;;;;;6.68;5.57;;;;;;;;;;5047859;28;20573;-64
2022/09/11 12:11:49;;;;;;;9.85;6.28;;;;;;;;;;5044813;28;20418;-64
2022/09/11 12:14:24;;;;;;;8.80;5.90;;;;;;;;;;5047936;28;20023;-64
2022/09/11 12:16:51;;;;;;;6.43;5.32;;;;;;;;;;5043230;28;20094;-64
2022/09/11 12:19:19;;;;;;;7.30;6.25;;;;;;;;;;5042980;28;20033;-62
2022/09/11 12:21:53;;;;;;;7.57;5.70;;;;;;;;;;5044923;28;20545;-64
2022/09/11 12:24:43;;;;;;;6.78;5.60;;;;;;;;;;5048620;28;20033;-64
2022/09/11 12:27:33;;;;;;;6.13;5.13;;;;;;;;;;5045172;28;20024;-64
2022/09/11 12:30:17;;;;;;;7.13;5.32;;;;;;;;;;5047317;28;20032;-64
2022/09/11 12:32:45;;;;;;;7.25;5.50;;;;;;;;;;5046116;28;20025;-62
2022/09/11 12:35:24;;;;;;;6.00;5.30;;;;;;;;;;5046041;28;20035;-65
2022/09/11 12:38:01;;;;;;;7.55;5.72;;;;;;;;;;5046223;28;20024;-62
2022/09/11 12:40:52;;;;;;;8.23;6.05;;;;;;;;;;5046541;28;20754;-64
2022/09/11 12:43:35;;;;;;;6.28;5.60;;;;;;;;;;5044170;28;20455;-64
2022/09/11 12:46:02;;;;;;;6.80;5.93;;;;;;;;;;5045608;28;20036;-63
2022/09/11 12:48:46;;;;;;;6.35;5.72;;;;;;;;;;5049160;28;20053;-63
2022/09/11 12:51:34;;;;;;;8.27;5.97;;;;;;;;;;5044972;28;20032;-64
2022/09/11 12:54:17;;;;;;;6.78;5.88;;;;;;;;;;5047938;28;20028;-64
2022/09/11 12:56:49;;;;;;;6.38;5.63;;;;;;;;;;5046201;28;20483;-64
2022/09/11 12:59:30;;;;;;;8.85;5.85;;;;;;;;;;5048620;28;20041;-63
2022/09/11 13:01:56;;;;;;;6.25;5.65;;;;;;;;;;5047337;28;20036;-63
2022/09/11 13:04:25;;;;;;;7.07;5.93;;;;;;;;;;5053639;28;20422;-62
2022/09/11 13:06:55;;;;;;;6.40;5.63;;;;;;;;;;5052038;28;20028;-64
2022/09/11 13:09:30;;;;;;;7.13;5.53;;;;;;;;;;5048081;28;20035;-63
2022/09/11 13:12:25;;;;;;;7.90;6.32;;;;;;;;;;5052061;28;20025;-62
2022/09/11 13:14:59;;;;;;;7.68;6.63;;;;;;;;;;5051643;28;20032;-62
2022/09/11 13:17:29;;;;;;;7.50;6.13;;;;;;;;;;5052806;28;20487;-62
2022/09/11 13:20:04;;;;;;;7.07;5.93;;;;;;;;;;5051923;28;20043;-63
2022/09/11 13:22:33;;;;;;;6.57;5.18;;;;;;;;;;5050998;28;20021;-62
2022/09/11 13:25:20;;;;;;;6.63;5.65;;;;;;;;;;5052475;28;20057;-62
2022/09/11 13:27:48;;;;;;;8.13;5.72;;;;;;;;;;5051727;28;20040;-63
2022/09/11 13:30:15;;;;;;;7.35;5.38;;;;;;;;;;5048237;28;20036;-62
2022/09/11 13:32:43;;;;;;;8.02;5.97;;;;;;;;;;5051633;28;20041;-61
2022/09/11 13:35:15;;;;;;;7.65;5.45;;;;;;;;;;5051360;28;20119;-62
2022/09/11 13:38:08;;;;;;;6.28;5.55;;;;;;;;;;5050993;28;20187;-62
2022/09/11 13:40:44;;;;;;;6.93;5.70;;;;;;;;;;5052131;28;20037;-63
2022/09/11 13:43:24;;;;;;;6.40;5.70;;;;;;;;;;5050511;28;20029;-63
2022/09/11 13:46:29;;;;;;;6.53;5.75;;;;;;;;;;5050072;28;20086;-61
2022/09/11 13:49:19;;;;;;;7.22;5.63;;;;;;;;;;5051221;28;20041;-61
2022/09/11 13:51:46;;;;;;;6.07;5.47;;;;;;;;;;5047102;28;20037;-61
2022/09/11 13:54:15;;;;;;;6.43;5.47;;;;;;;;;;5052200;28;20037;-62
2022/09/11 13:56:45;;;;;;;;;;;;;;;;;;5051883;28;20024;-62
2022/09/11 13:59:35;;;;;;;7.50;5.47;;;;;;;;;;5049572;28;19913;-62
2022/09/11 14:02:04;;;;;;;5.75;5.05;;;;;;;;;;5048508;28;20056;-61
2022/09/11 14:04:32;;;;;;;5.95;5.18;;;;;;;;;;5051638;28;20044;-61
2022/09/11 14:06:57;;;;;;;8.45;5.75;;;;;;;;;;5050862;28;20029;-62
2022/09/11 14:09:23;;;;;;;6.95;5.28;;;;;;;;;;5051875;28;20048;-61
2022/09/11 14:11:49;;;;;;;6.45;5.35;;;;;;;;;;5050984;28;20020;-61
2022/09/11 14:14:24;;;;;;;5.68;5.10;;;;;;;;;;5050019;28;20203;-60
2022/09/11 14:16:54;;;;;;;6.30;5.70;;;;;;;;;;5049675;28;20024;-60
2022/09/11 14:19:23;;;;;;;6.72;5.47;;;;;;;;;;5056486;28;20024;-63
2022/09/11 14:21:49;;;;;;;5.70;5.20;;;;;;;;;;5049940;28;20517;-63
2022/09/11 14:24:24;;;;;;;6.55;5.50;;;;;;;;;;5050311;28;20102;-61
2022/09/11 14:26:49;;;;;;;6.18;5.47;;;;;;;;;;5049907;28;20033;-62
2022/09/11 14:29:30;;;;;;;6.82;5.35;;;;;;;;;;5051322;28;20025;-61
2022/09/11 14:32:22;;;;;;;9.20;5.70;;;;;;;;;;5049638;28;20665;-62
2022/09/11 14:34:47;;;;;;;6.13;5.07;;;;;;;;;;5050041;28;20049;-61
2022/09/11 14:37:15;;;;;;;6.28;5.00;;;;;;;;;;5050210;28;20055;-61
2022/09/11 14:39:55;;;;;;;6.80;4.80;;;;;;;;;;5049429;28;20470;-62
2022/09/11 14:42:23;;;;;;;5.97;5.10;;;;;;;;;;5049366;28;20056;-62
2022/09/11 14:44:49;;;;;;;6.47;5.30;;;;;;;;;;5049961;28;20067;-62
2022/09/11 14:47:32;;;;;;;5.95;5.35;;;;;;;;;;5050509;28;20068;-62
2022/09/11 14:49:57;;;;;;;4.97;4.45;;;;;;;;;;5050042;28;20433;-60
2022/09/11 14:52:25;;;;;;;6.22;4.68;;;;;;;;;;5049610;28;20029;-61
2022/09/11 14:54:51;;;;;;;6.10;5.50;;;;;;;;;;5049620;28;20035;-61
2022/09/11 14:57:25;;;;;;;5.78;5.20;;;;;;;;;;5048698;28;20029;-61
2022/09/11 14:59:51;;;;;;;5.70;5.10;;;;;;;;;;5049616;28;20293;-61
2022/09/11 15:02:22;;;;;;;8.95;5.13;;;;;;;;;;5050115;28;20029;-61
2022/09/11 15:04:48;;;;;;;5.65;5.10;;;;;;;;;;5050564;28;20116;-61
2022/09/11 15:07:15;;;;;;;6.85;5.28;;;;;;;;;;5048427;28;20048;-62
2022/09/11 15:09:41;;;;;;;6.13;5.00;;;;;;;;;;5050956;28;20033;-62